8 minutes ago

Add a runway to see crosswind and headwind information.

Add Runway
METAR EHSC 151655Z AUTO 03019KT 9999 ///////// 07/02 Q1030 W07/H12

METAR definition | Embed

METAR Haamstede Airfield

Haamstede Airfield is a small airport in Schouwen-Duiveland, The Netherlands. The field elevation is 15 ft.

Haamstede Airfield didn't publish observations recently. Instead, we show you the report of Lichteiland Goeree which is 15 mi away. This report was made on April 15, 2021 6:55 pm, local time.

Airport observations

The wind is from direction northnortheast (030°) with a speed of 19 kt.

Visibility is 6¼ mi or more.

There are . No ceiling has been observed.

The temperature is 45 °F, with a wind chill of 34 °F. The dew point is 36 °F, the relative humidity is 71%. The air pressure at sea level is 30.42 inHg (QNH).

Daylight period

Today the sun rises at 6:48 am and sets at 8:42 pm. This applies to Haamstede Airfield, the universal daylight period may be different. The difference between the local time and UTC is +2 hour. Daylight saving time is currently in progress.

Historical data

Donate

Will you help us to keep Metar-Taf.com running?
Your contribution helps further development of the site and to pay for the expenses.

No more ads

Are you donating $ 5 or more? Then we'll never show you ads again, as a token of our eternal gratitude!
Log in before you donate

Do you want the flying weather of Haamstede Airfield on your website? Read more   Free!